Time;durP1;ratioP1;P1;durP2;ratioP2;P2;SDS_P1;SDS_P2;PMS_P1;PMS_P2;Temp;Humidity;BMP_temperature;BMP_pressure;BME280_temperature;BME280_humidity;BME280_pressure;Samples;Min_cycle;Max_cycle;Signal;HPM_P1;HPM_P2
2022/04/27 00:02:01;;;;;;;7.15;3.58;;;;;;;16.23;50.81;99711.41;4401290;32;31962;-85
2022/04/27 00:04:31;;;;;;;6.57;4.05;;;;;;;16.26;50.26;99710.87;4411047;32;33675;-85
2022/04/27 00:07:02;;;;;;;8.90;5.07;;;;;;;16.46;49.32;99716.84;4401794;32;32991;-84
2022/04/27 00:09:33;;;;;;;10.43;4.95;;;;;;;16.55;48.42;99706.19;4418554;32;34013;-84
2022/04/27 00:12:01;;;;;;;9.50;5.00;;;;;;;16.26;48.36;99706.19;4428862;32;33319;-84
2022/04/27 00:14:30;;;;;;;9.10;5.05;;;;;;;16.20;48.64;99717.44;4399612;32;33200;-84
2022/04/27 00:17:01;;;;;;;9.23;4.62;;;;;;;16.35;48.56;99715.78;4399531;32;33915;-79
2022/04/27 00:19:29;;;;;;;8.25;5.30;;;;;;;16.36;48.15;99719.41;4419299;32;33554;-84
2022/04/27 00:21:58;;;;;;;8.80;5.05;;;;;;;16.45;47.93;99715.16;4424444;32;34228;-83
2022/04/27 00:24:28;;;;;;;7.78;4.37;;;;;;;16.32;48.22;99716.28;4424535;32;33403;-85
2022/04/27 00:26:59;;;;;;;10.23;5.55;;;;;;;16.54;47.77;99727.53;4424470;32;33902;-86
2022/04/27 00:29:29;;;;;;;7.53;4.87;;;;;;;16.48;48.00;99723.81;4437500;32;33765;-86
2022/04/27 00:31:58;;;;;;;9.10;5.43;;;;;;;16.57;47.83;99717.88;4424506;32;32926;-85
2022/04/27 00:34:31;;;;;;;8.00;4.65;;;;;;;16.66;47.30;99714.50;4429505;32;34482;-85
2022/04/27 00:36:59;;;;;;;10.25;5.20;;;;;;;16.46;46.91;99717.69;4413486;32;35096;-85
2022/04/27 00:39:30;;;;;;;9.93;4.93;;;;;;;16.51;45.80;99721.63;4413582;32;32266;-85
2022/04/27 00:42:02;;;;;;;9.18;5.05;;;;;;;16.66;45.76;99720.03;4398933;32;32389;-85
2022/04/27 00:44:31;;;;;;;7.97;5.05;;;;;;;16.79;45.26;99719.75;4410608;32;34365;-85
2022/04/27 00:47:02;;;;;;;12.25;4.78;;;;;;;16.73;45.34;99725.44;4398619;32;33228;-86
2022/04/27 00:49:33;;;;;;;8.40;5.10;;;;;;;16.57;45.57;99727.03;4411319;32;34568;-85
2022/04/27 00:52:01;;;;;;;9.15;6.10;;;;;;;16.26;46.69;99725.56;4423467;32;34357;-86
2022/04/27 00:54:32;;;;;;;9.13;5.68;;;;;;;16.40;46.91;99734.44;4386058;32;33164;-86
2022/04/27 00:57:03;;;;;;;12.00;6.07;;;;;;;15.67;49.13;99740.59;4411120;32;34929;-85
2022/04/27 00:59:30;;;;;;;10.90;6.30;;;;;;;15.87;48.95;99743.84;4410961;32;32281;-85
2022/04/27 01:02:01;;;;;;;11.65;7.03;;;;;;;15.28;50.98;99739.34;4398066;32;31606;-86
2022/04/27 01:04:33;;;;;;;11.27;6.82;;;;;;;15.40;50.81;99749.34;4411013;32;34002;-86
2022/04/27 01:07:07;;;;;;;10.27;7.00;;;;;;;15.62;50.72;99741.31;4410663;32;34596;-85
2022/04/27 01:09:35;;;;;;;11.25;7.20;;;;;;;15.75;50.45;99748.53;4410586;32;34022;-85
2022/04/27 01:12:07;;;;;;;11.80;7.30;;;;;;;15.81;50.42;99742.87;4410893;32;31834;-85
2022/04/27 01:14:47;;;;;;;12.40;7.30;;;;;;;15.93;50.35;99733.72;4423558;32;34177;-86
2022/04/27 01:17:15;;;;;;;12.95;7.65;;;;;;;16.04;50.08;99733.72;4423320;32;32953;-86
2022/04/27 01:19:43;;;;;;;11.82;7.60;;;;;;;15.88;50.74;99741.91;4398301;32;32422;-86
2022/04/27 01:22:19;;;;;;;13.77;7.05;;;;;;;15.80;51.03;99745.88;4412978;32;33145;-85
2022/04/27 01:24:49;;;;;;;12.05;7.90;;;;;;;15.82;51.38;99744.56;4400606;32;33092;-86
2022/04/27 01:27:21;;;;;;;12.02;7.53;;;;;;;15.81;51.61;99750.34;4414105;32;33709;-85
2022/04/27 01:29:50;;;;;;;13.27;7.05;;;;;;;15.98;51.35;99742.16;4413703;32;34027;-86
2022/04/27 01:32:21;;;;;;;12.25;7.62;;;;;;;15.83;52.34;99750.94;4412967;32;32816;-86
2022/04/27 01:34:54;;;;;;;14.95;8.55;;;;;;;15.99;52.40;99746.59;4413013;32;33410;-86
2022/04/27 01:40:12;;;;;;;13.02;7.90;;;;;;;16.03;52.99;99772.72;4425387;32;32400;-86
2022/04/27 01:42:40;;;;;;;13.43;8.23;;;;;;;15.74;54.13;99780.06;4413289;32;31810;-86
2022/04/27 01:45:09;;;;;;;16.48;8.13;;;;;;;15.60;54.71;99789.69;4413266;32;34048;-86
2022/04/27 01:47:37;;;;;;;12.98;8.02;;;;;;;15.62;54.49;99798.56;4413187;32;33194;-87
2022/04/27 01:50:05;;;;;;;11.93;7.72;;;;;;;15.60;54.71;99795.22;4412558;32;34027;-89
2022/04/27 01:55:21;;;;;;;15.23;8.02;;;;;;;15.49;55.73;99792.19;4415115;32;32011;-88
2022/04/27 01:57:53;;;;;;;13.40;8.55;;;;;;;15.35;56.44;99784.34;4412912;32;34912;-87
2022/04/27 02:00:24;;;;;;;14.02;8.35;;;;;;;15.56;56.22;99788.47;4400655;32;32484;-87
2022/04/27 02:02:51;;;;;;;14.90;8.48;;;;;;;15.44;57.26;99792.06;4413963;32;34014;-87
2022/04/27 02:05:20;;;;;;;11.98;7.60;;;;;;;15.48;57.53;99784.97;4413178;32;33543;-87
2022/04/27 02:07:47;;;;;;;13.90;8.32;;;;;;;15.43;57.65;99789.53;4400771;32;34812;-88
2022/04/27 02:10:15;;;;;;;13.85;8.38;;;;;;;15.58;57.12;99780.78;4400537;32;32279;-88
2022/04/27 02:12:46;;;;;;;12.25;8.20;;;;;;;15.54;58.08;99785.09;4400517;32;32639;-87
2022/04/27 02:15:14;;;;;;;15.32;8.50;;;;;;;15.42;59.04;99776.78;4400512;32;33332;-87
2022/04/27 02:17:42;;;;;;;11.60;7.70;;;;;;;15.45;59.14;99768.84;4400730;32;32995;-87
2022/04/27 02:20:11;;;;;;;13.48;8.10;;;;;;;15.28;60.33;99764.25;4412995;32;34821;-87
2022/04/27 02:22:39;;;;;;;12.48;8.40;;;;;;;15.35;60.15;99759.44;4413315;32;34263;-86
2022/04/27 02:25:07;;;;;;;13.88;8.98;;;;;;;15.47;59.92;99763.91;4400738;32;33088;-85
2022/04/27 02:27:37;;;;;;;14.55;8.75;;;;;;;15.45;60.10;99763.31;4412962;32;33927;-85
2022/04/27 02:30:05;;;;;;;13.00;7.82;;;;;;;15.40;60.52;99759.56;4413169;32;33914;-85
2022/04/27 02:32:40;;;;;;;12.57;8.52;;;;;;;15.44;60.67;99758.84;4413641;32;33494;-85
2022/04/27 02:35:10;;;;;;;13.55;8.60;;;;;;;15.29;61.29;99755.72;4413832;32;33750;-84
2022/04/27 02:37:41;;;;;;;12.98;7.93;;;;;;;15.45;60.77;99754.16;4413797;32;34598;-85
2022/04/27 02:40:10;;;;;;;15.45;8.52;;;;;;;15.40;61.03;99752.13;4413157;32;34607;-83
2022/04/27 02:42:38;;;;;;;12.85;8.00;;;;;;;15.41;61.10;99748.28;4439490;32;34069;-84
2022/04/27 02:45:09;;;;;;;15.20;8.77;;;;;;;15.29;61.53;99747.41;4400563;32;32569;-84
2022/04/27 02:47:44;;;;;;;13.38;8.35;;;;;;;15.23;61.43;99750.28;4400858;32;34367;-83
2022/04/27 02:53:01;;;;;;;12.20;8.50;;;;;;;15.25;61.64;99746.19;4414673;32;31967;-84
2022/04/27 02:55:31;;;;;;;14.60;8.38;;;;;;;15.24;61.61;99740.91;4413422;32;34303;-83
2022/04/27 02:58:02;;;;;;;11.82;8.25;;;;;;;15.35;61.40;99740.09;4412978;32;35218;-82
2022/04/27 03:00:34;;;;;;;14.95;8.70;;;;;;;15.15;62.26;99748.72;4413313;32;34618;-82
2022/04/27 03:03:08;;;;;;;14.38;8.52;;;;;;;15.27;61.97;99744.03;4414104;32;33950;-82
2022/04/27 03:05:40;;;;;;;14.20;8.40;;;;;;;15.36;61.60;99739.84;4425944;32;33773;-83
2022/04/27 03:08:14;;;;;;;13.95;8.70;;;;;;;15.22;62.09;99746.69;4412774;32;34046;-81
2022/04/27 03:10:43;;;;;;;13.82;9.20;;;;;;;15.32;62.43;99740.56;4413869;32;34663;-82
2022/04/27 03:13:10;;;;;;;13.82;8.65;;;;;;;15.30;62.28;99745.50;4399897;32;32213;-82
2022/04/27 03:15:38;;;;;;;13.27;8.15;;;;;;;15.05;63.06;99753.97;4400349;32;32151;-82
2022/04/27 03:18:22;;;;;;;14.70;8.20;;;;;;;15.04;62.98;99752.28;4413149;32;34414;-82
2022/04/27 03:20:50;;;;;;;13.10;8.73;;;;;;;15.07;62.56;99752.66;4412458;32;32305;-82
2022/04/27 03:23:23;;;;;;;15.82;8.95;;;;;;;15.18;61.94;99753.75;4413109;32;33092;-82
2022/04/27 03:25:53;;;;;;;13.52;8.82;;;;;;;15.19;61.70;99758.22;4403440;32;32226;-81
2022/04/27 03:28:21;;;;;;;16.48;8.80;;;;;;;15.09;61.85;99755.19;4430107;32;35500;-81
2022/04/27 03:30:49;;;;;;;14.05;8.93;;;;;;;14.97;62.46;99765.37;4429316;32;34557;-83
2022/04/27 03:33:18;;;;;;;15.48;8.98;;;;;;;15.13;62.13;99767.47;4402387;32;32638;-82
2022/04/27 03:35:47;;;;;;;14.10;9.30;;;;;;;15.06;62.37;99761.19;4400074;32;32998;-80
2022/04/27 03:38:15;;;;;;;16.95;8.45;;;;;;;15.35;64.88;99765.81;4412582;32;34328;-80
2022/04/27 03:40:45;;;;;;;13.75;8.88;;;;;;;15.36;63.54;99764.75;4400332;32;32009;-80
2022/04/27 03:43:15;;;;;;;16.60;8.38;;;;;;;15.16;62.97;99767.81;4413289;32;33600;-78
2022/04/27 03:45:43;;;;;;;14.73;8.40;;;;;;;15.22;62.62;99771.56;4413031;32;33471;-83
2022/04/27 03:48:11;;;;;;;16.75;9.18;;;;;;;15.32;62.81;99774.59;4412737;32;34357;-83
2022/04/27 03:50:40;;;;;;;13.48;8.52;;;;;;;15.15;62.48;99776.34;4412316;32;32610;-83
2022/04/27 03:53:11;;;;;;;14.63;8.70;;;;;;;15.14;62.39;99771.91;4413026;32;33786;-83
2022/04/27 03:55:41;;;;;;;14.18;9.13;;;;;;;15.27;61.97;99781.91;4412309;32;33143;-83
2022/04/27 03:58:13;;;;;;;12.88;8.68;;;;;;;15.41;61.65;99780.63;4412531;32;35067;-83
2022/04/27 04:00:40;;;;;;;14.10;8.77;;;;;;;15.27;62.05;99780.00;4412477;32;33763;-83
2022/04/27 04:03:11;;;;;;;14.73;8.38;;;;;;;15.17;62.41;99779.72;4412578;32;33047;-84
2022/04/27 04:05:46;;;;;;;18.87;9.35;;;;;;;15.30;62.05;99784.22;4414686;32;33465;-83
2022/04/27 04:08:17;;;;;;;13.90;9.13;;;;;;;15.21;62.44;99791.16;4406796;32;35578;-84
2022/04/27 04:10:47;;;;;;;15.23;9.60;;;;;;;15.14;62.54;99791.25;4411292;32;33713;-84
2022/04/27 04:13:18;;;;;;;15.25;10.02;;;;;;;15.16;62.58;99800.16;4405636;32;32153;-85
2022/04/27 04:15:46;;;;;;;14.23;9.32;;;;;;;15.21;62.47;99797.53;4412361;32;33289;-86
2022/04/27 04:18:16;;;;;;;12.48;8.63;;;;;;;15.13;62.79;99806.16;4393695;32;34324;-84
2022/04/27 04:20:46;;;;;;;15.32;9.25;;;;;;;14.94;63.41;99807.31;4396794;32;32207;-84
2022/04/27 04:23:17;;;;;;;13.75;8.68;;;;;;;15.09;62.89;99808.53;4412328;32;33240;-85
2022/04/27 04:28:31;;;;;;;16.33;10.18;;;;;;;15.05;63.14;99812.84;4405047;32;32523;-85
2022/04/27 04:31:01;;;;;;;14.57;9.65;;;;;;;14.89;63.63;99818.22;4410927;32;32920;-85
2022/04/27 04:33:29;;;;;;;16.37;9.82;;;;;;;15.01;63.41;99819.09;4412176;32;33336;-85
2022/04/27 04:36:02;;;;;;;13.38;8.77;;;;;;;15.04;63.07;99822.22;4412219;32;33611;-85
2022/04/27 04:38:36;;;;;;;15.55;9.90;;;;;;;14.94;63.25;99824.75;4412006;32;33205;-85
2022/04/27 04:41:07;;;;;;;21.30;13.00;;;;;;;14.94;63.23;99824.75;4424797;32;33696;-85
2022/04/27 04:43:37;;;;;;;17.35;10.93;;;;;;;14.89;63.23;99829.28;4424811;32;33531;-85
2022/04/27 04:46:05;;;;;;;15.75;10.30;;;;;;;14.93;63.16;99833.25;4412367;32;33352;-84
2022/04/27 04:48:35;;;;;;;15.02;9.63;;;;;;;14.95;63.14;99831.94;4412474;32;34365;-82
2022/04/27 04:51:03;;;;;;;15.27;9.85;;;;;;;14.98;63.76;99830.63;4424571;32;33831;-84
2022/04/27 04:53:34;;;;;;;14.55;9.57;;;;;;;15.05;63.73;99829.44;4412339;32;33629;-84
2022/04/27 04:56:05;;;;;;;14.63;9.43;;;;;;;15.02;63.93;99832.69;4411995;32;33961;-84
2022/04/27 04:58:33;;;;;;;14.23;8.45;;;;;;;14.99;64.11;99826.78;4424629;32;34192;-84
2022/04/27 05:01:02;;;;;;;14.18;9.18;;;;;;;15.08;63.71;99825.37;4424567;32;34992;-84
2022/04/27 05:03:37;;;;;;;13.88;9.43;;;;;;;15.10;63.67;99825.97;4411861;32;32357;-84
2022/04/27 05:06:05;;;;;;;13.65;8.85;;;;;;;15.13;63.52;99831.03;4425095;32;33839;-83
2022/04/27 05:08:36;;;;;;;14.82;9.25;;;;;;;15.01;63.76;99836.50;4411711;32;34591;-84
2022/04/27 05:11:07;;;;;;;15.68;9.25;;;;;;;15.16;63.09;99848.00;4398973;32;32524;-75
2022/04/27 05:13:42;;;;;;;14.38;9.73;;;;;;;15.16;63.37;99852.69;4412406;32;33531;-85
2022/04/27 05:16:11;;;;;;;13.77;8.80;;;;;;;15.10;63.82;99848.09;4399120;32;32785;-84
2022/04/27 05:18:40;;;;;;;35.60;25.08;;;;;;;15.20;64.00;99859.44;4411740;32;33997;-86
2022/04/27 05:21:07;;;;;;;17.27;13.35;;;;;;;15.58;71.44;99863.78;4410975;32;32567;-86
2022/04/27 05:23:35;;;;;;;13.40;9.00;;;;;;;16.05;70.35;99862.75;4399141;32;32798;-78
2022/04/27 05:26:04;;;;;;;14.73;9.75;;;;;;;16.41;65.57;99858.00;4413641;32;32015;-78
2022/04/27 05:31:54;;;;;;;12.60;8.48;;;;;;;16.36;61.92;99855.97;4401145;32;33376;-85
2022/04/27 05:34:13;;;;;;;13.85;9.43;;;;;;;16.36;60.65;99860.66;4425726;32;32195;-86
2022/04/27 05:36:44;;;;;;;13.43;9.07;;;;;;;16.40;60.50;99864.63;4414210;32;32374;-83
2022/04/27 05:39:15;;;;;;;13.20;8.15;;;;;;;16.34;60.92;99865.59;4425819;32;34472;-82
2022/04/27 05:41:46;;;;;;;12.20;8.52;;;;;;;16.27;60.58;99870.41;4413809;32;32794;-83
2022/04/27 05:44:18;;;;;;;15.45;9.35;;;;;;;16.26;60.51;99866.81;4413255;32;31759;-83
2022/04/27 05:46:52;;;;;;;14.20;8.95;;;;;;;16.20;60.81;99873.34;4401897;32;32598;-85
2022/04/27 05:49:23;;;;;;;15.43;8.88;;;;;;;16.23;60.34;99870.09;4405278;32;33690;-83
2022/04/27 05:51:57;;;;;;;14.40;8.98;;;;;;;16.25;59.88;99875.38;4411603;32;32684;-83
2022/04/27 05:54:27;;;;;;;16.00;8.55;;;;;;;16.26;60.04;99886.19;4412550;32;33200;-84
2022/04/27 05:56:55;;;;;;;12.73;8.27;;;;;;;16.23;60.37;99883.09;4413323;32;33968;-83
2022/04/27 05:59:26;;;;;;;14.57;8.85;;;;;;;16.33;60.10;99888.84;4413498;32;34407;-83
2022/04/27 06:01:55;;;;;;;13.48;7.87;;;;;;;16.56;59.53;99877.75;4400999;32;33259;-84
2022/04/27 06:04:27;;;;;;;12.52;8.23;;;;;;;16.53;58.97;99882.94;4413213;32;33981;-84
2022/04/27 06:06:58;;;;;;;11.77;7.68;;;;;;;16.40;58.42;99884.88;4414525;32;33993;-84
2022/04/27 06:09:30;;;;;;;14.70;9.15;;;;;;;16.53;58.35;99880.16;4413313;32;33860;-84
2022/04/27 06:12:01;;;;;;;14.65;7.68;;;;;;;16.57;59.13;99887.75;4413320;32;32800;-84
2022/04/27 06:14:44;;;;;;;12.98;8.15;;;;;;;16.66;58.05;99891.00;4407185;32;32633;-84
2022/04/27 06:17:13;;;;;;;12.45;7.93;;;;;;;16.78;57.74;99898.22;4417842;32;33932;-85
2022/04/27 06:19:48;;;;;;;11.15;7.70;;;;;;;16.79;57.95;99902.69;4411535;32;33872;-84
2022/04/27 06:22:19;;;;;;;12.75;8.20;;;;;;;16.99;56.15;99896.69;4399057;32;34317;-84
2022/04/27 06:24:48;;;;;;;13.85;8.38;;;;;;;17.02;55.89;99896.19;4412965;32;32614;-84
2022/04/27 06:27:20;;;;;;;13.25;8.88;;;;;;;17.16;55.67;99896.75;4400143;32;32776;-84
2022/04/27 06:29:50;;;;;;;12.45;8.55;;;;;;;17.21;55.95;99907.97;4412564;32;35404;-83
2022/04/27 06:32:20;;;;;;;15.82;8.10;;;;;;;17.43;55.28;99899.78;4413415;32;33932;-83
2022/04/27 06:34:52;;;;;;;14.80;9.00;;;;;;;17.50;55.51;99907.97;4426703;32;33923;-84
2022/04/27 06:37:24;;;;;;;11.80;7.90;;;;;;;17.76;54.16;99907.34;4413734;32;34562;-84
2022/04/27 06:39:58;;;;;;;12.35;8.40;;;;;;;17.51;54.06;99912.41;4413279;32;34332;-83
2022/04/27 06:42:30;;;;;;;15.20;8.00;;;;;;;17.43;52.59;99910.88;4426258;32;33274;-82
2022/04/27 06:45:04;;;;;;;14.50;9.15;;;;;;;17.50;51.87;99907.97;4413578;32;33129;-83
2022/04/27 06:47:46;;;;;;;13.55;8.38;;;;;;;17.48;53.09;99905.44;4414325;32;31969;-83
2022/04/27 06:50:35;;;;;;;15.93;8.10;;;;;;;17.55;52.25;99911.66;4403117;32;33870;-85
2022/04/27 06:53:17;;;;;;;13.55;7.93;;;;;;;17.51;51.15;99917.97;4403558;32;33993;-84
2022/04/27 06:56:05;;;;;;;14.27;8.68;;;;;;;17.26;50.19;99919.16;4425218;32;32752;-84
2022/04/27 06:58:38;;;;;;;15.13;9.45;;;;;;;17.40;51.31;99928.88;4426073;32;34232;-84
2022/04/27 07:01:10;;;;;;;17.20;11.27;;;;;;;17.26;52.42;99927.47;4412656;32;35290;-84
2022/04/27 07:03:43;;;;;;;16.25;10.13;;;;;;;17.50;53.14;99924.63;4413185;32;33443;-82
2022/04/27 07:06:12;;;;;;;15.30;10.75;;;;;;;17.10;55.07;99939.34;4412987;32;33254;-83
2022/04/27 07:08:41;;;;;;;14.68;10.63;;;;;;;16.98;55.74;99936.59;4413302;32;34699;-83
2022/04/27 07:11:12;;;;;;;15.32;10.98;;;;;;;17.09;55.20;99940.44;4412874;32;34370;-83
2022/04/27 07:13:39;;;;;;;16.27;10.43;;;;;;;16.83;55.94;99938.22;4412387;32;33375;-83
2022/04/27 07:16:10;;;;;;;16.48;11.05;;;;;;;16.54;56.88;99943.62;4411901;32;32385;-83
2022/04/27 07:18:38;;;;;;;17.60;10.38;;;;;;;16.98;56.12;99941.31;4412475;32;31720;-83
2022/04/27 07:21:10;;;;;;;16.08;11.07;;;;;;;16.91;55.90;99946.97;4399715;32;34683;-83
2022/04/27 07:23:40;;;;;;;16.37;11.35;;;;;;;16.87;56.15;99944.97;4413150;32;33591;-83
2022/04/27 07:26:08;;;;;;;15.85;10.73;;;;;;;16.78;55.88;99938.94;4413009;32;34076;-82
2022/04/27 07:28:41;;;;;;;14.95;10.70;;;;;;;16.71;56.35;99950.16;4406418;32;33005;-82
2022/04/27 07:31:11;;;;;;;16.52;10.23;;;;;;;16.83;56.06;99943.78;4413295;32;34416;-82
2022/04/27 07:33:42;;;;;;;17.62;11.98;;;;;;;16.43;56.33;99950.03;4412733;32;31996;-83
2022/04/27 07:36:13;;;;;;;16.65;11.82;;;;;;;16.31;56.70;99958.31;4397813;32;32012;-82
2022/04/27 07:38:41;;;;;;;16.45;10.35;;;;;;;16.60;56.68;99951.00;4410233;32;34421;-82
2022/04/27 07:41:09;;;;;;;16.23;10.63;;;;;;;16.43;56.79;99961.09;4425021;32;35255;-82
2022/04/27 07:43:40;;;;;;;20.60;12.00;;;;;;;16.30;56.69;99958.56;4415367;32;34060;-80
2022/04/27 07:46:11;;;;;;;15.15;11.02;;;;;;;16.28;57.61;99950.50;4416098;32;34268;-81
2022/04/27 07:48:42;;;;;;;16.37;10.55;;;;;;;16.51;57.05;99957.97;4427063;32;33653;-82
2022/04/27 07:51:10;;;;;;;16.35;10.13;;;;;;;16.94;55.14;99956.75;4414440;32;34015;-82
2022/04/27 07:53:42;;;;;;;17.45;10.55;;;;;;;16.63;55.59;99960.75;4425534;32;33977;-84
2022/04/27 07:56:18;;;;;;;16.33;11.40;;;;;;;17.05;54.97;99969.75;4425282;32;33400;-83
2022/04/27 07:58:48;;;;;;;;;;;;;;;17.30;55.12;99964.72;4412664;32;34060;-83
2022/04/27 08:01:16;;;;;;;20.45;12.77;;;;;;;17.40;54.52;99964.94;4412823;32;34704;-82
2022/04/27 08:03:50;;;;;;;14.65;10.10;;;;;;;17.48;54.93;99973.97;4412587;32;34539;-82
2022/04/27 08:06:24;;;;;;;18.23;12.57;;;;;;;17.64;54.55;99962.87;4412645;32;33451;-82
2022/04/27 08:08:59;;;;;;;17.10;12.13;;;;;;;17.85;54.23;99961.38;4412410;32;33036;-82
2022/04/27 08:11:41;;;;;;;15.68;10.55;;;;;;;17.96;53.29;99966.00;4401559;32;33740;-82
2022/04/27 08:14:14;;;;;;;14.68;9.80;;;;;;;17.92;52.00;99952.88;4412722;32;32798;-82
2022/04/27 08:16:43;;;;;;;16.23;11.30;;;;;;;17.95;50.62;99958.78;4425148;32;33491;-82
2022/04/27 08:19:17;;;;;;;15.82;11.00;;;;;;;17.94;50.98;99959.88;4423130;32;33976;-83
2022/04/27 08:21:48;;;;;;;14.65;10.30;;;;;;;17.97;51.75;99969.63;4408848;32;34486;-82
2022/04/27 08:24:20;;;;;;;16.05;10.68;;;;;;;18.17;51.48;99969.16;4423637;32;34485;-82
2022/04/27 08:26:48;;;;;;;14.87;10.40;;;;;;;18.09;50.60;99976.81;4411053;32;34369;-82
2022/04/27 08:29:19;;;;;;;15.43;10.02;;;;;;;18.30;50.20;99974.34;4423437;32;33656;-82
2022/04/27 08:31:50;;;;;;;15.15;10.82;;;;;;;18.11;50.17;99979.34;4396712;32;33074;-82
2022/04/27 08:34:19;;;;;;;15.63;10.98;;;;;;;18.30;50.39;99977.13;4410623;32;33873;-82
2022/04/27 08:36:49;;;;;;;17.62;11.48;;;;;;;18.32;50.35;99975.78;4405303;32;31407;-82
2022/04/27 08:39:20;;;;;;;18.45;12.90;;;;;;;18.44;49.52;99979.31;4402651;32;32978;-82
2022/04/27 08:41:57;;;;;;;18.55;10.65;;;;;;;18.61;49.03;99976.56;4407932;32;35197;-83
2022/04/27 08:44:27;;;;;;;15.38;10.10;;;;;;;18.80;49.77;99981.84;4412180;32;33644;-85
2022/04/27 08:46:58;;;;;;;17.62;10.40;;;;;;;18.60;50.09;99983.22;4423847;32;34049;-83
2022/04/27 08:49:33;;;;;;;15.85;10.02;;;;;;;18.63;48.72;99977.16;4411415;32;34603;-82
2022/04/27 08:52:06;;;;;;;15.18;9.73;;;;;;;18.59;48.72;99972.31;4411696;32;34089;-83
2022/04/27 08:54:40;;;;;;;16.45;10.95;;;;;;;18.88;49.35;99973.03;4408983;32;32520;-82
2022/04/27 08:57:11;;;;;;;19.00;11.32;;;;;;;18.67;49.37;99978.31;4396078;32;34049;-82
2022/04/27 08:59:42;;;;;;;18.60;11.55;;;;;;;18.88;49.72;99967.47;4397583;32;33617;-82
2022/04/27 09:02:24;;;;;;;26.00;17.12;;;;;;;18.95;49.46;99970.91;4406498;32;33946;-83
2022/04/27 09:05:07;;;;;;;23.73;15.98;;;;;;;18.98;49.00;99973.19;4439692;32;34613;-83
2022/04/27 09:07:40;;;;;;;16.55;11.52;;;;;;;18.86;48.65;99975.22;4426285;32;33557;-82
2022/04/27 09:10:18;;;;;;;17.40;11.10;;;;;;;19.25;49.08;99970.47;4440024;32;33488;-81
2022/04/27 09:12:53;;;;;;;24.73;15.88;;;;;;;19.32;49.15;99971.97;4426871;32;35434;-82
2022/04/27 09:15:27;;;;;;;18.55;13.48;;;;;;;19.41;48.72;99972.34;4413484;32;32513;-83
2022/04/27 09:20:52;;;;;;;15.77;11.68;;;;;;;19.21;48.28;99972.09;4415490;32;33343;-82
2022/04/27 09:23:37;;;;;;;19.52;12.13;;;;;;;19.19;47.80;99975.12;4426544;32;34548;-82
2022/04/27 09:26:19;;;;;;;17.45;10.93;;;;;;;19.11;48.18;99969.19;4426816;32;34314;-82
2022/04/27 09:28:51;;;;;;;16.00;10.82;;;;;;;19.54;48.29;99985.87;4413744;32;31740;-83
2022/04/27 09:31:29;;;;;;;14.93;11.02;;;;;;;19.71;48.24;99972.72;4401194;32;32136;-84
2022/04/27 09:34:27;;;;;;;18.37;11.38;;;;;;;19.62;47.33;99979.00;4413737;32;33992;-82
2022/04/27 09:37:04;;;;;;;16.67;11.45;;;;;;;19.24;47.32;99978.00;4415834;32;33217;-82
2022/04/27 09:39:38;;;;;;;19.87;12.70;;;;;;;19.37;47.77;99973.97;4412145;32;31970;-83
2022/04/27 09:42:09;;;;;;;18.30;12.07;;;;;;;19.16;47.61;99967.31;4412691;32;33633;-82
2022/04/27 09:44:41;;;;;;;18.40;11.50;;;;;;;19.45;47.88;99973.53;4414019;32;35359;-82
2022/04/27 09:47:14;;;;;;;15.93;10.98;;;;;;;19.54;47.43;99965.56;4413424;32;33838;-82
2022/04/27 09:49:46;;;;;;;15.52;11.35;;;;;;;19.69;46.86;99974.09;4413553;32;33294;-82
2022/04/27 09:52:18;;;;;;;15.25;10.95;;;;;;;19.93;46.74;99964.31;4426460;32;33895;-81
2022/04/27 09:54:47;;;;;;;18.45;11.00;;;;;;;19.84;46.56;99962.28;4413741;32;34354;-81
2022/04/27 09:57:18;;;;;;;15.68;10.85;;;;;;;19.41;45.68;99969.56;4426206;32;34106;-82
2022/04/27 09:59:48;;;;;;;21.98;13.60;;;;;;;19.80;45.78;99963.91;4413555;32;34103;-82
2022/04/27 10:02:27;;;;;;;28.42;18.95;;;;;;;19.35;46.54;99968.69;4426043;32;33604;-83
2022/04/27 10:05:00;;;;;;;21.08;12.48;;;;;;;19.78;46.74;99980.03;4413728;32;33932;-83
2022/04/27 10:07:34;;;;;;;15.70;11.50;;;;;;;19.22;46.87;99974.62;4397102;32;32033;-83
2022/04/27 10:10:08;;;;;;;15.52;11.10;;;;;;;18.92;47.03;99972.25;4412693;32;32523;-82
2022/04/27 10:12:40;;;;;;;15.55;11.48;;;;;;;18.67;47.81;99983.88;4423742;32;33561;-84
2022/04/27 10:15:15;;;;;;;18.00;11.77;;;;;;;18.95;48.33;99982.03;4412989;32;33452;-83
2022/04/27 10:17:43;;;;;;;17.25;11.45;;;;;;;18.94;48.24;99978.41;4413113;32;32643;-83
2022/04/27 10:20:28;;;;;;;20.45;13.55;;;;;;;19.09;48.13;99986.13;4405519;32;33415;-83
2022/04/27 10:23:22;;;;;;;22.80;14.80;;;;;;;19.13;48.75;99983.69;4397478;32;32916;-82
2022/04/27 10:26:20;;;;;;;17.58;11.90;;;;;;;19.00;49.38;99990.47;4410590;32;34478;-85
2022/04/27 10:28:50;;;;;;;19.83;13.85;;;;;;;19.05;49.94;99991.38;4410437;32;33770;-84
2022/04/27 10:31:39;;;;;;;28.17;17.52;;;;;;;17.66;53.10;99995.97;4397651;32;32838;-85
2022/04/27 10:34:21;;;;;;;19.98;13.88;;;;;;;17.76;54.18;99996.19;4410345;32;33883;-85
2022/04/27 10:36:51;;;;;;;17.27;11.43;;;;;;;17.75;54.11;99997.28;4409833;32;32924;-86
2022/04/27 10:39:31;;;;;;;18.00;12.37;;;;;;;17.87;55.12;100003.63;4410339;32;32917;-86
2022/04/27 10:42:02;;;;;;;19.20;13.65;;;;;;;17.69;56.55;99998.25;4410539;32;33765;-85
2022/04/27 10:44:53;;;;;;;17.75;13.88;;;;;;;17.86;54.73;100004.69;4410396;32;33595;-85
2022/04/27 10:47:22;;;;;;;20.58;13.88;;;;;;;17.87;55.00;100003.63;4410501;32;34430;-86
2022/04/27 10:50:12;;;;;;;19.73;13.82;;;;;;;17.07;56.81;100010.00;4410076;32;33520;-80
2022/04/27 10:52:51;;;;;;;21.90;15.35;;;;;;;17.38;56.31;100008.75;4422792;32;32799;-78
2022/04/27 10:55:34;;;;;;;18.77;14.40;;;;;;;17.51;56.11;100004.00;4410452;32;34730;-83
2022/04/27 10:58:24;;;;;;;18.85;14.02;;;;;;;16.72;57.53;100010.06;4410309;32;32900;-82
2022/04/27 11:01:07;;;;;;;17.45;12.70;;;;;;;16.74;58.96;100002.34;4397731;32;33004;-83
2022/04/27 11:03:38;;;;;;;19.05;13.57;;;;;;;16.84;58.62;100006.44;4410455;32;33507;-82
2022/04/27 11:06:57;;;;;;;22.85;14.90;;;;;;;17.21;58.22;100004.19;4410205;32;33318;-83
2022/04/27 11:09:44;;;;;;;23.95;15.18;;;;;;;17.17;57.89;100009.38;4403655;32;32727;-84
2022/04/27 11:12:13;;;;;;;23.87;15.25;;;;;;;17.03;57.41;100011.56;4410174;32;33798;-83
2022/04/27 11:14:47;;;;;;;22.50;14.65;;;;;;;16.93;57.03;100010.50;4422610;32;34068;-85
2022/04/27 11:17:30;;;;;;;22.52;14.80;;;;;;;16.74;57.04;100015.34;4398079;32;33595;-83
2022/04/27 11:20:02;;;;;;;23.70;14.32;;;;;;;16.47;58.27;100014.94;4409847;32;35270;-82
2022/04/27 11:22:38;;;;;;;19.92;13.65;;;;;;;16.57;59.19;100011.59;4409779;32;33928;-83
2022/04/27 11:25:09;;;;;;;19.35;13.52;;;;;;;17.15;57.22;100017.09;4410236;32;33348;-84
2022/04/27 11:27:37;;;;;;;19.37;13.40;;;;;;;17.02;58.21;100014.59;4410048;32;33435;-84
2022/04/27 11:30:08;;;;;;;21.25;13.27;;;;;;;16.97;58.21;100015.31;4409848;32;35742;-84
2022/04/27 11:32:44;;;;;;;22.17;13.80;;;;;;;16.95;57.88;100022.19;4397309;32;32361;-84
2022/04/27 11:35:12;;;;;;;17.65;12.50;;;;;;;17.11;56.99;100015.91;4409928;32;34205;-84
2022/04/27 11:37:39;;;;;;;17.30;13.13;;;;;;;16.37;58.93;100018.31;4410142;32;34475;-83
2022/04/27 11:40:12;;;;;;;22.00;15.13;;;;;;;16.45;58.41;100023.50;4410055;32;34231;-84
2022/04/27 11:42:47;;;;;;;36.72;24.17;;;;;;;16.19;58.47;100018.41;4397402;32;33657;-84
2022/04/27 11:45:23;;;;;;;25.93;17.87;;;;;;;16.18;59.41;100024.19;4409962;32;33192;-84
2022/04/27 11:47:58;;;;;;;30.17;18.70;;;;;;;16.49;58.33;100021.09;4422676;32;33570;-84
2022/04/27 11:50:35;;;;;;;21.87;15.45;;;;;;;16.43;58.29;100022.91;4410020;32;34380;-84
2022/04/27 11:53:08;;;;;;;21.87;14.57;;;;;;;16.26;58.89;100026.59;4409892;32;33825;-85
2022/04/27 11:55:36;;;;;;;23.27;14.52;;;;;;;15.74;59.87;100032.72;4422481;32;33326;-84
2022/04/27 11:58:06;;;;;;;20.80;14.98;;;;;;;15.61;60.85;100030.13;4422460;32;34498;-84
2022/04/27 12:00:36;;;;;;;21.60;14.05;;;;;;;15.24;61.33;100037.59;4409686;32;33117;-84
2022/04/27 12:03:06;;;;;;;20.37;14.52;;;;;;;15.34;61.19;100026.84;4422426;32;33943;-84